sensor_id;sensor_type;location;lat;lon;timestamp;pressure;altitude;pressure_sealevel;temperature;humidity
31096;BME280;17749;51.962;8.560;2023-02-03T06:01:39;100532.88;;;7.23;100.00
31096;BME280;17749;51.962;8.560;2023-02-03T06:04:08;100534.69;;;7.21;100.00
31096;BME280;17749;51.962;8.560;2023-02-03T06:06:36;100521.47;;;7.19;100.00
31096;BME280;17749;51.962;8.560;2023-02-03T06:09:11;100525.78;;;7.25;100.00
31096;BME280;17749;51.962;8.560;2023-02-03T06:11:39;100528.53;;;7.20;100.00
31096;BME280;17749;51.962;8.560;2023-02-03T06:14:08;100532.88;;;7.23;100.00
31096;BME280;17749;51.962;8.560;2023-02-03T06:16:37;100530.34;;;7.17;100.00
31096;BME280;17749;51.962;8.560;2023-02-03T06:19:04;100527.72;;;7.17;100.00
31096;BME280;17749;51.962;8.560;2023-02-03T06:21:31;100549.81;;;7.14;100.00
31096;BME280;17749;51.962;8.560;2023-02-03T06:23:58;100527.91;;;7.08;100.00
31096;BME280;17749;51.962;8.560;2023-02-03T06:26:29;100524.47;;;7.02;100.00
31096;BME280;17749;51.962;8.560;2023-02-03T06:28:59;100535.06;;;7.02;100.00
31096;BME280;17749;51.962;8.560;2023-02-03T06:31:26;100535.06;;;7.02;100.00
31096;BME280;17749;51.962;8.560;2023-02-03T06:33:53;100543.00;;;7.02;100.00
31096;BME280;17749;51.962;8.560;2023-02-03T06:36:23;100538.69;;;6.97;100.00
31096;BME280;17749;51.962;8.560;2023-02-03T06:38:50;100547.38;;;7.03;100.00
31096;BME280;17749;51.962;8.560;2023-02-03T06:41:17;100550.97;;;7.01;100.00
31096;BME280;17749;51.962;8.560;2023-02-03T06:43:44;100541.34;;;6.95;100.00
31096;BME280;17749;51.962;8.560;2023-02-03T06:46:11;100532.50;;;6.96;100.00
31096;BME280;17749;51.962;8.560;2023-02-03T06:48:38;100539.56;;;6.97;100.00
31096;BME280;17749;51.962;8.560;2023-02-03T06:51:05;100533.41;;;6.95;100.00
31096;BME280;17749;51.962;8.560;2023-02-03T06:53:32;100540.44;;;6.98;100.00
31096;BME280;17749;51.962;8.560;2023-02-03T06:55:59;100544.06;;;6.92;100.00
31096;BME280;17749;51.962;8.560;2023-02-03T06:58:28;100547.50;;;6.97;100.00
31096;BME280;17749;51.962;8.560;2023-02-03T07:00:56;100536.03;;;6.97;100.00
31096;BME280;17749;51.962;8.560;2023-02-03T07:03:25;100555.41;;;6.99;100.00
31096;BME280;17749;51.962;8.560;2023-02-03T07:05:52;100554.53;;;6.98;100.00
31096;BME280;17749;51.962;8.560;2023-02-03T07:08:19;100549.19;;;7.01;100.00
31096;BME280;17749;51.962;8.560;2023-02-03T07:10:46;100554.66;;;6.92;100.00
31096;BME280;17749;51.962;8.560;2023-02-03T07:13:13;100552.88;;;6.93;100.00
31096;BME280;17749;51.962;8.560;2023-02-03T07:15:39;100554.59;;;6.94;100.00
31096;BME280;17749;51.962;8.560;2023-02-03T07:18:07;100551.94;;;6.95;100.00
31096;BME280;17749;51.962;8.560;2023-02-03T07:20:34;100537.84;;;6.95;100.00
31096;BME280;17749;51.962;8.560;2023-02-03T07:23:09;100538.78;;;6.92;100.00
31096;BME280;17749;51.962;8.560;2023-02-03T07:25:37;100544.00;;;6.95;100.00
31096;BME280;17749;51.962;8.560;2023-02-03T07:28:06;100540.38;;;6.99;100.00
31096;BME280;17749;51.962;8.560;2023-02-03T07:30:34;100530.75;;;6.95;100.00
31096;BME280;17749;51.962;8.560;2023-02-03T07:33:01;100540.44;;;6.96;100.00
31096;BME280;17749;51.962;8.560;2023-02-03T07:35:28;100526.38;;;6.94;100.00
31096;BME280;17749;51.962;8.560;2023-02-03T07:37:55;100549.25;;;6.98;100.00
31096;BME280;17749;51.962;8.560;2023-02-03T07:40:22;100535.16;;;6.96;100.00
31096;BME280;17749;51.962;8.560;2023-02-03T07:42:49;100544.84;;;6.97;100.00
31096;BME280;17749;51.962;8.560;2023-02-03T07:45:17;100531.56;;;7.00;100.00
31096;BME280;17749;51.962;8.560;2023-02-03T07:47:44;100531.56;;;7.00;100.00
31096;BME280;17749;51.962;8.560;2023-02-03T07:50:11;100513.97;;;6.96;100.00
31096;BME280;17749;51.962;8.560;2023-02-03T07:52:39;100514.00;;;6.95;100.00
31096;BME280;17749;51.962;8.560;2023-02-03T07:55:06;100529.84;;;6.96;100.00
31096;BME280;17749;51.962;8.560;2023-02-03T07:57:34;100513.09;;;6.96;100.00
31096;BME280;17749;51.962;8.560;2023-02-03T08:00:02;100523.69;;;6.96;100.00
31096;BME280;17749;51.962;8.560;2023-02-03T08:02:37;100517.53;;;6.95;100.00
31096;BME280;17749;51.962;8.560;2023-02-03T08:05:04;100521.91;;;6.96;100.00
31096;BME280;17749;51.962;8.560;2023-02-03T08:07:31;100524.50;;;6.99;100.00
31096;BME280;17749;51.962;8.560;2023-02-03T08:09:58;100525.47;;;6.97;100.00
31096;BME280;17749;51.962;8.560;2023-02-03T08:12:26;100543.00;;;7.01;100.00
31096;BME280;17749;51.962;8.560;2023-02-03T08:14:53;100537.72;;;7.01;100.00
31096;BME280;17749;51.962;8.560;2023-02-03T08:17:20;100528.00;;;7.01;100.00
31096;BME280;17749;51.962;8.560;2023-02-03T08:19:47;100534.13;;;7.05;100.00
31096;BME280;17749;51.962;8.560;2023-02-03T08:22:14;100538.53;;;7.05;100.00
31096;BME280;17749;51.962;8.560;2023-02-03T08:24:43;100532.41;;;7.02;100.00
31096;BME280;17749;51.962;8.560;2023-02-03T08:27:12;100545.53;;;7.09;100.00
31096;BME280;17749;51.962;8.560;2023-02-03T08:29:39;100531.50;;;7.02;100.00
31096;BME280;17749;51.962;8.560;2023-02-03T08:32:11;100538.50;;;7.08;100.00
31096;BME280;17749;51.962;8.560;2023-02-03T08:34:38;100522.63;;;7.05;100.00
31096;BME280;17749;51.962;8.560;2023-02-03T08:37:12;100526.19;;;7.05;100.00
31096;BME280;17749;51.962;8.560;2023-02-03T08:39:40;100521.66;;;7.10;100.00
31096;BME280;17749;51.962;8.560;2023-02-03T08:42:07;100534.88;;;7.12;100.00
31096;BME280;17749;51.962;8.560;2023-02-03T08:44:34;100531.28;;;7.16;100.00
31096;BME280;17749;51.962;8.560;2023-02-03T08:47:01;100534.81;;;7.15;100.00
31096;BME280;17749;51.962;8.560;2023-02-03T08:49:29;100534.78;;;7.18;100.00
31096;BME280;17749;51.962;8.560;2023-02-03T08:51:57;100521.59;;;7.13;100.00
31096;BME280;17749;51.962;8.560;2023-02-03T08:54:24;100528.56;;;7.17;100.00
31096;BME280;17749;51.962;8.560;2023-02-03T08:56:52;100525.00;;;7.20;100.00
31096;BME280;17749;51.962;8.560;2023-02-03T08:59:19;100519.69;;;7.21;100.00
31096;BME280;17749;51.962;8.560;2023-02-03T09:01:46;100520.53;;;7.22;100.00
31096;BME280;17749;51.962;8.560;2023-02-03T09:04:15;100501.09;;;7.23;100.00
31096;BME280;17749;51.962;8.560;2023-02-03T09:06:51;100494.06;;;7.22;100.00
31096;BME280;17749;51.962;8.560;2023-02-03T09:09:20;100484.44;;;7.18;100.00
31096;BME280;17749;51.962;8.560;2023-02-03T09:11:47;100488.75;;;7.23;100.00
31096;BME280;17749;51.962;8.560;2023-02-03T09:14:14;100493.97;;;7.27;100.00
31096;BME280;17749;51.962;8.560;2023-02-03T09:16:42;100508.09;;;7.27;100.00
31096;BME280;17749;51.962;8.560;2023-02-03T09:19:09;100507.22;;;7.25;100.00
31096;BME280;17749;51.962;8.560;2023-02-03T09:21:36;100521.25;;;7.30;100.00
31096;BME280;17749;51.962;8.560;2023-02-03T09:24:10;100515.94;;;7.32;100.00
31096;BME280;17749;51.962;8.560;2023-02-03T09:26:37;100513.28;;;7.32;100.00
31096;BME280;17749;51.962;8.560;2023-02-03T09:29:04;100514.22;;;7.29;100.00
31096;BME280;17749;51.962;8.560;2023-02-03T09:31:32;100526.50;;;7.33;100.00
31096;BME280;17749;51.962;8.560;2023-02-03T09:33:59;100529.97;;;7.37;100.00
31096;BME280;17749;51.962;8.560;2023-02-03T09:36:26;100518.53;;;7.33;100.00
31096;BME280;17749;51.962;8.560;2023-02-03T09:38:53;100515.00;;;7.34;100.00
31096;BME280;17749;51.962;8.560;2023-02-03T09:41:46;100517.59;;;7.37;100.00
31096;BME280;17749;51.962;8.560;2023-02-03T09:44:35;100519.41;;;7.35;100.00
31096;BME280;17749;51.962;8.560;2023-02-03T09:47:09;100523.69;;;7.41;100.00
31096;BME280;17749;51.962;8.560;2023-02-03T09:49:45;100522.88;;;7.39;100.00
31096;BME280;17749;51.962;8.560;2023-02-03T09:52:22;100505.19;;;7.39;100.00
31096;BME280;17749;51.962;8.560;2023-02-03T09:57:42;100516.69;;;7.38;100.00
31096;BME280;17749;51.962;8.560;2023-02-03T10:00:58;100510.41;;;7.42;100.00
31096;BME280;17749;51.962;8.560;2023-02-03T10:03:53;100509.50;;;7.43;100.00
31096;BME280;17749;51.962;8.560;2023-02-03T10:06:30;100506.00;;;7.43;100.00
31096;BME280;17749;51.962;8.560;2023-02-03T10:15:06;100505.97;;;7.44;100.00
31096;BME280;17749;51.962;8.560;2023-02-03T10:17:54;100501.47;;;7.48;100.00
31096;BME280;17749;51.962;8.560;2023-02-03T10:20:33;100520.03;;;7.46;100.00
31096;BME280;17749;51.962;8.560;2023-02-03T10:23:06;100532.41;;;7.47;100.00
31096;BME280;17749;51.962;8.560;2023-02-03T10:25:40;100530.63;;;7.48;100.00
31096;BME280;17749;51.962;8.560;2023-02-03T10:28:16;100539.38;;;7.52;100.00
31096;BME280;17749;51.962;8.560;2023-02-03T10:30:55;100557.03;;;7.53;100.00
31096;BME280;17749;51.962;8.560;2023-02-03T10:33:26;100549.97;;;7.52;100.00
31096;BME280;17749;51.962;8.560;2023-02-03T10:38:48;100561.34;;;7.57;100.00
31096;BME280;17749;51.962;8.560;2023-02-03T10:41:18;100547.28;;;7.55;100.00
31096;BME280;17749;51.962;8.560;2023-02-03T10:43:46;100549.88;;;7.58;100.00
31096;BME280;17749;51.962;8.560;2023-02-03T10:46:26;100550.75;;;7.57;100.00
31096;BME280;17749;51.962;8.560;2023-02-03T10:48:54;100549.88;;;7.58;100.00
31096;BME280;17749;51.962;8.560;2023-02-03T10:51:33;100552.47;;;7.59;100.00
31096;BME280;17749;51.962;8.560;2023-02-03T10:54:02;100548.94;;;7.59;100.00
31096;BME280;17749;51.962;8.560;2023-02-03T10:56:31;100549.78;;;7.61;100.00
31096;BME280;17749;51.962;8.560;2023-02-03T10:59:02;100548.00;;;7.63;100.00
31096;BME280;17749;51.962;8.560;2023-02-03T11:01:43;100548.84;;;7.63;100.00
31096;BME280;17749;51.962;8.560;2023-02-03T11:04:31;100552.44;;;7.62;100.00
31096;BME280;17749;51.962;8.560;2023-02-03T11:07:04;100553.28;;;7.63;100.00
31096;BME280;17749;51.962;8.560;2023-02-03T11:09:37;100547.84;;;7.69;100.00
31096;BME280;17749;51.962;8.560;2023-02-03T11:12:09;100564.66;;;7.68;100.00
31096;BME280;17749;51.962;8.560;2023-02-03T11:14:43;100557.59;;;7.67;100.00
31096;BME280;17749;51.962;8.560;2023-02-03T11:17:24;100553.16;;;7.69;100.00
31096;BME280;17749;51.962;8.560;2023-02-03T11:19:54;100546.03;;;7.71;100.00
31096;BME280;17749;51.962;8.560;2023-02-03T11:22:30;100550.50;;;7.69;100.00
31096;BME280;17749;51.962;8.560;2023-02-03T11:24:58;100557.59;;;7.67;100.00
31096;BME280;17749;51.962;8.560;2023-02-03T11:27:29;100574.34;;;7.69;100.00
31096;BME280;17749;51.962;8.560;2023-02-03T11:32:39;100576.88;;;7.75;100.00
31096;BME280;17749;51.962;8.560;2023-02-03T11:35:17;100566.31;;;7.74;100.00
31096;BME280;17749;51.962;8.560;2023-02-03T11:37:47;100585.75;;;7.74;100.00
31096;BME280;17749;51.962;8.560;2023-02-03T11:42:43;100575.13;;;7.76;100.00
31096;BME280;17749;51.962;8.560;2023-02-03T11:45:23;100573.19;;;7.82;100.00
31096;BME280;17749;51.962;8.560;2023-02-03T11:47:52;100585.56;;;7.83;100.00
31096;BME280;17749;51.962;8.560;2023-02-03T11:50:38;100563.44;;;7.84;100.00
31096;BME280;17749;51.962;8.560;2023-02-03T12:02:01;100581.00;;;7.88;100.00
31096;BME280;17749;51.962;8.560;2023-02-03T12:07:07;100600.56;;;7.84;100.00
31096;BME280;17749;51.962;8.560;2023-02-03T12:12:41;100622.63;;;7.85;100.00
31096;BME280;17749;51.962;8.560;2023-02-03T12:23:58;100632.47;;;7.80;100.00
31096;BME280;17749;51.962;8.560;2023-02-03T12:26:47;100638.69;;;7.79;100.00
31096;BME280;17749;51.962;8.560;2023-02-03T12:29:19;100640.34;;;7.83;100.00
31096;BME280;17749;51.962;8.560;2023-02-03T12:32:08;100645.72;;;7.81;100.00
31096;BME280;17749;51.962;8.560;2023-02-03T12:34:49;100620.94;;;7.82;100.00
31096;BME280;17749;51.962;8.560;2023-02-03T12:37:26;100625.28;;;7.85;100.00
31096;BME280;17749;51.962;8.560;2023-02-03T12:40:02;100634.03;;;7.88;100.00
31096;BME280;17749;51.962;8.560;2023-02-03T12:42:42;100628.75;;;7.88;100.00
31096;BME280;17749;51.962;8.560;2023-02-03T12:45:18;100636.66;;;7.92;100.00
31096;BME280;17749;51.962;8.560;2023-02-03T12:47:55;100635.66;;;7.96;100.00
31096;BME280;17749;51.962;8.560;2023-02-03T12:50:30;100639.19;;;7.98;100.00
31096;BME280;17749;51.962;8.560;2023-02-03T12:53:04;100639.19;;;7.98;100.00
31096;BME280;17749;51.962;8.560;2023-02-03T12:55:41;100629.31;;;8.04;100.00
31096;BME280;17749;51.962;8.560;2023-02-03T12:58:27;100639.88;;;8.07;100.00
31096;BME280;17749;51.962;8.560;2023-02-03T13:01:08;100642.53;;;8.06;100.00
31096;BME280;17749;51.962;8.560;2023-02-03T13:03:59;100634.50;;;8.09;100.00
31096;BME280;17749;51.962;8.560;2023-02-03T13:12:32;100637.13;;;8.10;100.00
31096;BME280;17749;51.962;8.560;2023-02-03T13:20:32;100614.28;;;8.05;100.00
31096;BME280;17749;51.962;8.560;2023-02-03T13:23:07;100607.22;;;8.04;100.00
31096;BME280;17749;51.962;8.560;2023-02-03T13:28:58;100621.25;;;8.09;100.00
31096;BME280;17749;51.962;8.560;2023-02-03T13:31:37;100626.47;;;8.12;100.00
31096;BME280;17749;51.962;8.560;2023-02-03T13:34:42;100620.34;;;8.10;100.00
31096;BME280;17749;51.962;8.560;2023-02-03T13:40:22;100622.19;;;8.06;100.00
31096;BME280;17749;51.962;8.560;2023-02-03T13:43:00;100632.84;;;8.03;100.00
31096;BME280;17749;51.962;8.560;2023-02-03T13:45:41;100629.31;;;8.04;100.00
31096;BME280;17749;51.962;8.560;2023-02-03T13:50:43;100632.00;;;8.03;100.00
31096;BME280;17749;51.962;8.560;2023-02-03T13:53:20;100648.91;;;7.97;100.00
31096;BME280;17749;51.962;8.560;2023-02-03T13:55:54;100653.34;;;7.97;100.00
31096;BME280;17749;51.962;8.560;2023-02-03T13:58:25;100639.25;;;7.95;100.00
31096;BME280;17749;51.962;8.560;2023-02-03T14:05:58;100649.94;;;7.88;100.00
31096;BME280;17749;51.962;8.560;2023-02-03T14:16:41;100666.09;;;7.78;100.00
31096;BME280;17749;51.962;8.560;2023-02-03T14:21:53;100648.72;;;7.63;100.00
31096;BME280;17749;51.962;8.560;2023-02-03T14:24:22;100654.94;;;7.60;100.00
31096;BME280;17749;51.962;8.560;2023-02-03T14:26:51;100645.28;;;7.58;100.00
31096;BME280;17749;51.962;8.560;2023-02-03T14:29:27;100671.78;;;7.58;100.00
31096;BME280;17749;51.962;8.560;2023-02-03T14:32:03;100675.38;;;7.54;100.00
31096;BME280;17749;51.962;8.560;2023-02-03T14:39:54;100698.38;;;7.52;100.00
31096;BME280;17749;51.962;8.560;2023-02-03T14:43:09;100700.22;;;7.50;100.00
31096;BME280;17749;51.962;8.560;2023-02-03T14:51:12;100712.59;;;7.47;100.00
31096;BME280;17749;51.962;8.560;2023-02-03T14:59:39;100734.88;;;7.37;100.00
31096;BME280;17749;51.962;8.560;2023-02-03T15:04:37;100731.47;;;7.29;100.00
31096;BME280;17749;51.962;8.560;2023-02-03T15:07:04;100749.09;;;7.32;100.00
31096;BME280;17749;51.962;8.560;2023-02-03T15:09:44;100737.63;;;7.31;100.00
31096;BME280;17749;51.962;8.560;2023-02-03T15:12:19;100744.69;;;7.31;100.00
31096;BME280;17749;51.962;8.560;2023-02-03T15:14:48;100748.25;;;7.28;100.00
31096;BME280;17749;51.962;8.560;2023-02-03T15:17:24;100758.84;;;7.28;100.00
31096;BME280;17749;51.962;8.560;2023-02-03T15:19:52;100773.94;;;7.23;100.00
31096;BME280;17749;51.962;8.560;2023-02-03T15:22:23;100766.03;;;7.20;100.00
31096;BME280;17749;51.962;8.560;2023-02-03T15:24:51;100785.41;;;7.25;100.00
31096;BME280;17749;51.962;8.560;2023-02-03T15:27:23;100776.59;;;7.23;100.00
31096;BME280;17749;51.962;8.560;2023-02-03T15:29:51;100775.81;;;7.18;100.00
31096;BME280;17749;51.962;8.560;2023-02-03T15:32:35;100783.78;;;7.15;100.00
31096;BME280;17749;51.962;8.560;2023-02-03T15:35:09;100786.53;;;7.10;100.00
31096;BME280;17749;51.962;8.560;2023-02-03T15:37:48;100796.22;;;7.10;100.00
31096;BME280;17749;51.962;8.560;2023-02-03T15:40:18;100796.31;;;7.03;100.00
31096;BME280;17749;51.962;8.560;2023-02-03T15:43:02;100786.66;;;6.99;100.00
31096;BME280;17749;51.962;8.560;2023-02-03T15:45:31;100796.41;;;6.97;100.00
31096;BME280;17749;51.962;8.560;2023-02-03T15:48:29;100788.50;;;6.96;100.00
31096;BME280;17749;51.962;8.560;2023-02-03T15:50:57;100789.50;;;6.87;100.00
31096;BME280;17749;51.962;8.560;2023-02-03T15:53:33;100793.03;;;6.86;100.00
31096;BME280;17749;51.962;8.560;2023-02-03T15:59:26;100791.28;;;6.84;100.00
31096;BME280;17749;51.962;8.560;2023-02-03T16:01:56;100810.75;;;6.81;100.00
31096;BME280;17749;51.962;8.560;2023-02-03T16:04:24;100796.69;;;6.79;100.00
31096;BME280;17749;51.962;8.560;2023-02-03T16:06:53;100808.19;;;6.76;100.00
31096;BME280;17749;51.962;8.560;2023-02-03T16:09:30;100817.91;;;6.76;100.00
31096;BME280;17749;51.962;8.560;2023-02-03T16:14:35;100835.56;;;6.74;100.00
31096;BME280;17749;51.962;8.560;2023-02-03T16:17:02;100837.31;;;6.76;100.00
31096;BME280;17749;51.962;8.560;2023-02-03T16:19:32;100844.38;;;6.73;100.00
31096;BME280;17749;51.962;8.560;2023-02-03T16:22:04;100855.88;;;6.70;100.00
31096;BME280;17749;51.962;8.560;2023-02-03T16:35:57;100862.13;;;6.65;100.00
31096;BME280;17749;51.962;8.560;2023-02-03T16:38:47;100865.72;;;6.61;100.00
31096;BME280;17749;51.962;8.560;2023-02-03T16:41:33;100853.38;;;6.59;100.00
31096;BME280;17749;51.962;8.560;2023-02-03T16:44:19;100862.25;;;6.55;100.00
31096;BME280;17749;51.962;8.560;2023-02-03T16:47:25;100865.78;;;6.54;100.00
31096;BME280;17749;51.962;8.560;2023-02-03T16:50:14;100872.84;;;6.55;100.00
31096;BME280;17749;51.962;8.560;2023-02-03T16:53:04;100868.47;;;6.51;100.00
31096;BME280;17749;51.962;8.560;2023-02-03T16:55:31;100879.06;;;6.51;100.00
31096;BME280;17749;51.962;8.560;2023-02-03T16:57:58;100874.63;;;6.53;100.00
31096;BME280;17749;51.962;8.560;2023-02-03T17:00:25;100872.88;;;6.52;100.00
31096;BME280;17749;51.962;8.560;2023-02-03T17:02:54;100868.47;;;6.51;100.00
31096;BME280;17749;51.962;8.560;2023-02-03T17:05:24;100868.50;;;6.50;100.00
31096;BME280;17749;51.962;8.560;2023-02-03T17:07:51;100858.78;;;6.50;100.00
31096;BME280;17749;51.962;8.560;2023-02-03T17:10:18;100869.38;;;6.50;100.00
31096;BME280;17749;51.962;8.560;2023-02-03T17:12:45;100872.06;;;6.47;100.00
31096;BME280;17749;51.962;8.560;2023-02-03T17:15:11;100866.78;;;6.47;100.00
31096;BME280;17749;51.962;8.560;2023-02-03T17:17:38;100864.13;;;6.44;100.00
31096;BME280;17749;51.962;8.560;2023-02-03T17:20:05;100857.09;;;6.43;100.00
31096;BME280;17749;51.962;8.560;2023-02-03T17:22:32;100860.66;;;6.42;100.00
31096;BME280;17749;51.962;8.560;2023-02-03T17:25:00;100865.06;;;6.40;100.00
31096;BME280;17749;51.962;8.560;2023-02-03T17:27:27;100883.59;;;6.40;100.00
31096;BME280;17749;51.962;8.560;2023-02-03T17:29:54;100893.28;;;6.41;100.00
31096;BME280;17749;51.962;8.560;2023-02-03T17:32:20;100888.91;;;6.37;100.00
31096;BME280;17749;51.962;8.560;2023-02-03T17:34:47;100892.41;;;6.39;100.00
31096;BME280;17749;51.962;8.560;2023-02-03T17:37:14;100894.19;;;6.40;100.00
31096;BME280;17749;51.962;8.560;2023-02-03T17:39:41;100910.06;;;6.40;100.00
31096;BME280;17749;51.962;8.560;2023-02-03T17:42:25;100918.84;;;6.41;100.00
31096;BME280;17749;51.962;8.560;2023-02-03T17:45:10;100927.66;;;6.41;100.00
31096;BME280;17749;51.962;8.560;2023-02-03T17:47:55;100918.91;;;6.36;100.00
31096;BME280;17749;51.962;8.560;2023-02-03T17:50:40;100937.41;;;6.38;100.00
31096;BME280;17749;51.962;8.560;2023-02-03T17:53:25;100925.09;;;6.35;100.00
31096;BME280;17749;51.962;8.560;2023-02-03T17:55:51;100921.63;;;6.30;100.00
31096;BME280;17749;51.962;8.560;2023-02-03T17:58:18;100935.69;;;6.33;100.00
31096;BME280;17749;51.962;8.560;2023-02-03T18:00:46;100933.06;;;6.30;100.00
31096;BME280;17749;51.962;8.560;2023-02-03T18:03:13;100934.84;;;6.30;100.00
31096;BME280;17749;51.962;8.560;2023-02-03T18:05:48;100932.19;;;6.28;100.00
31096;BME280;17749;51.962;8.560;2023-02-03T18:08:16;100940.19;;;6.24;100.00
31096;BME280;17749;51.962;8.560;2023-02-03T18:10:49;100938.41;;;6.23;100.00
31096;BME280;17749;51.962;8.560;2023-02-03T18:13:17;100938.47;;;6.21;100.00
31096;BME280;17749;51.962;8.560;2023-02-03T18:15:43;100942.91;;;6.16;100.00
31096;BME280;17749;51.962;8.560;2023-02-03T18:18:10;100945.56;;;6.14;100.00
31096;BME280;17749;51.962;8.560;2023-02-03T18:20:37;100954.38;;;6.13;100.00
31096;BME280;17749;51.962;8.560;2023-02-03T18:23:04;100953.56;;;6.08;100.00
31096;BME280;17749;51.962;8.560;2023-02-03T18:25:34;100957.97;;;6.06;100.00
31096;BME280;17749;51.962;8.560;2023-02-03T18:28:00;100969.44;;;6.04;100.00
31096;BME280;17749;51.962;8.560;2023-02-03T18:30:27;100970.31;;;6.04;100.00
31096;BME280;17749;51.962;8.560;2023-02-03T18:32:55;100972.09;;;6.05;100.00
31096;BME280;17749;51.962;8.560;2023-02-03T18:35:22;100983.53;;;6.04;100.00
31096;BME280;17749;51.962;8.560;2023-02-03T18:37:49;100993.25;;;6.05;100.00
31096;BME280;17749;51.962;8.560;2023-02-03T18:40:17;101009.09;;;6.05;100.00
31096;BME280;17749;51.962;8.560;2023-02-03T18:42:44;101004.69;;;6.04;100.00
31096;BME280;17749;51.962;8.560;2023-02-03T18:45:11;101010.88;;;6.03;100.00
31096;BME280;17749;51.962;8.560;2023-02-03T18:47:38;101006.47;;;6.02;100.00
31096;BME280;17749;51.962;8.560;2023-02-03T18:50:05;101008.22;;;6.02;100.00
31096;BME280;17749;51.962;8.560;2023-02-03T18:52:32;101002.94;;;6.03;100.00
31096;BME280;17749;51.962;8.560;2023-02-03T18:54:59;101004.72;;;6.01;100.00
31096;BME280;17749;51.962;8.560;2023-02-03T18:57:26;101010.00;;;6.01;100.00
31096;BME280;17749;51.962;8.560;2023-02-03T18:59:53;101014.41;;;5.99;100.00
31096;BME280;17749;51.962;8.560;2023-02-03T19:02:20;101020.59;;;6.03;100.00
31096;BME280;17749;51.962;8.560;2023-02-03T19:04:48;101026.75;;;5.99;100.00
31096;BME280;17749;51.962;8.560;2023-02-03T19:07:15;101044.38;;;6.01;100.00
31096;BME280;17749;51.962;8.560;2023-02-03T19:09:42;101035.56;;;6.01;100.00
31096;BME280;17749;51.962;8.560;2023-02-03T19:12:09;101044.41;;;5.98;100.00
31096;BME280;17749;51.962;8.560;2023-02-03T19:14:36;101048.81;;;6.01;100.00
31096;BME280;17749;51.962;8.560;2023-02-03T19:17:03;101046.16;;;5.95;100.00
31096;BME280;17749;51.962;8.560;2023-02-03T19:19:30;101062.88;;;6.01;100.00
31096;BME280;17749;51.962;8.560;2023-02-03T19:21:57;101062.00;;;6.02;100.00
31096;BME280;17749;51.962;8.560;2023-02-03T19:24:24;101079.66;;;6.00;100.00
31096;BME280;17749;51.962;8.560;2023-02-03T19:26:53;101072.63;;;5.96;100.00
31096;BME280;17749;51.962;8.560;2023-02-03T19:29:20;101073.50;;;5.95;100.00
31096;BME280;17749;51.962;8.560;2023-02-03T19:31:47;101075.25;;;5.98;100.00
31096;BME280;17749;51.962;8.560;2023-02-03T19:34:17;101089.34;;;5.98;100.00
31096;BME280;17749;51.962;8.560;2023-02-03T19:36:44;101077.91;;;5.96;100.00
31096;BME280;17749;51.962;8.560;2023-02-03T19:39:13;101076.16;;;5.95;100.00
31096;BME280;17749;51.962;8.560;2023-02-03T19:41:40;101084.06;;;5.98;100.00
31096;BME280;17749;51.962;8.560;2023-02-03T19:44:07;101082.28;;;5.99;100.00
31096;BME280;17749;51.962;8.560;2023-02-03T19:46:35;101078.78;;;5.98;100.00
31096;BME280;17749;51.962;8.560;2023-02-03T19:49:08;101077.00;;;5.97;100.00
31096;BME280;17749;51.962;8.560;2023-02-03T19:51:42;101084.94;;;6.00;100.00
31096;BME280;17749;51.962;8.560;2023-02-03T19:54:10;101077.00;;;6.03;100.00
31096;BME280;17749;51.962;8.560;2023-02-03T19:56:38;101083.16;;;6.02;100.00
31096;BME280;17749;51.962;8.560;2023-02-03T19:59:05;101080.53;;;6.01;100.00
31096;BME280;17749;51.962;8.560;2023-02-03T20:01:31;101081.41;;;6.00;100.00
31096;BME280;17749;51.962;8.560;2023-02-03T20:03:59;101093.78;;;5.98;100.00
31096;BME280;17749;51.962;8.560;2023-02-03T20:06:26;101083.19;;;5.95;100.00
31096;BME280;17749;51.962;8.560;2023-02-03T20:08:54;101099.06;;;5.96;100.00
31096;BME280;17749;51.962;8.560;2023-02-03T20:11:22;101106.97;;;5.93;100.00
31096;BME280;17749;51.962;8.560;2023-02-03T20:13:49;101113.19;;;5.95;100.00
31096;BME280;17749;51.962;8.560;2023-02-03T20:16:16;101110.53;;;5.95;100.00
31096;BME280;17749;51.962;8.560;2023-02-03T20:18:44;101117.53;;;5.91;100.00
31096;BME280;17749;51.962;8.560;2023-02-03T20:21:11;101125.47;;;5.93;100.00
31096;BME280;17749;51.962;8.560;2023-02-03T20:23:39;101110.53;;;5.87;100.00
31096;BME280;17749;51.962;8.560;2023-02-03T20:26:06;101106.13;;;5.88;100.00
31096;BME280;17749;51.962;8.560;2023-02-03T20:28:34;101120.22;;;5.87;100.00
31096;BME280;17749;51.962;8.560;2023-02-03T20:31:01;101115.84;;;5.84;100.00
31096;BME280;17749;51.962;8.560;2023-02-03T20:33:29;101114.94;;;5.87;100.00
31096;BME280;17749;51.962;8.560;2023-02-03T20:35:57;101129.91;;;5.86;100.00
31096;BME280;17749;51.962;8.560;2023-02-03T20:38:24;101126.41;;;5.84;100.00
31096;BME280;17749;51.962;8.560;2023-02-03T20:40:51;101137.00;;;5.84;100.00
31096;BME280;17749;51.962;8.560;2023-02-03T20:43:20;101149.31;;;5.84;100.00
31096;BME280;17749;51.962;8.560;2023-02-03T20:45:48;101146.66;;;5.87;100.00
31096;BME280;17749;51.962;8.560;2023-02-03T20:48:17;101146.66;;;5.87;100.00
31096;BME280;17749;51.962;8.560;2023-02-03T20:50:45;101148.41;;;5.86;100.00
31096;BME280;17749;51.962;8.560;2023-02-03T20:53:19;101157.25;;;5.87;100.00
31096;BME280;17749;51.962;8.560;2023-02-03T20:55:47;101140.47;;;5.86;100.00
31096;BME280;17749;51.962;8.560;2023-02-03T20:58:23;101148.41;;;5.88;100.00
31096;BME280;17749;51.962;8.560;2023-02-03T21:00:51;101154.59;;;5.90;100.00
31096;BME280;17749;51.962;8.560;2023-02-03T21:03:18;101158.09;;;5.86;100.00
31096;BME280;17749;51.962;8.560;2023-02-03T21:06:13;101166.94;;;5.83;100.00